Time;durP1;ratioP1;P1;durP2;ratioP2;P2;SDS_P1;SDS_P2;PMS_P1;PMS_P2;Temp;Humidity;BMP_temperature;BMP_pressure;BME280_temperature;BME280_humidity;BME280_pressure;Samples;Min_cycle;Max_cycle;Signal;HPM_P1;HPM_P2
2024/01/22 00:00:03;;;;;;;4.67;4.07;;;0.90;44.00;;;;;;5075479;28;20465;-65
2024/01/22 00:02:30;;;;;;;4.20;3.80;;;0.60;45.20;;;;;;5082135;28;20223;-65
2024/01/22 00:04:58;;;;;;;4.40;4.00;;;0.70;45.70;;;;;;5062243;28;20266;-62
2024/01/22 00:07:24;;;;;;;4.80;3.93;;;0.50;46.20;;;;;;5082794;28;20210;-63
2024/01/22 00:09:51;;;;;;;4.53;4.10;;;0.60;46.20;;;;;;5082842;28;20238;-64
2024/01/22 00:12:17;;;;;;;4.43;3.90;;;0.60;46.40;;;;;;5078920;28;20709;-62
2024/01/22 00:14:44;;;;;;;4.77;4.23;;;0.70;45.60;;;;;;5075564;28;20208;-65
2024/01/22 00:17:11;;;;;;;4.63;4.17;;;0.60;45.30;;;;;;5088140;28;20634;-63
2024/01/22 00:19:37;;;;;;;5.60;3.83;;;0.70;45.20;;;;;;5086292;28;20676;-62
2024/01/22 00:22:04;;;;;;;4.40;4.10;;;0.70;45.10;;;;;;5083527;28;20276;-65
2024/01/22 00:24:30;;;;;;;4.60;3.80;;;0.60;45.30;;;;;;5070799;28;20741;-62
2024/01/22 00:26:57;;;;;;;3.87;3.50;;;0.60;45.30;;;;;;5082471;28;20325;-63
2024/01/22 00:29:23;;;;;;;4.10;3.70;;;0.50;45.60;;;;;;5073659;28;20241;-62
2024/01/22 00:31:50;;;;;;;4.00;3.60;;;0.60;45.40;;;;;;5084324;28;20209;-62
2024/01/22 00:34:16;;;;;;;3.90;3.60;;;0.50;45.90;;;;;;5059764;28;20287;-62
2024/01/22 00:36:43;;;;;;;4.27;3.87;;;0.60;45.60;;;;;;5073682;28;20257;-63
2024/01/22 00:39:09;;;;;;;4.30;4.00;;;0.60;45.60;;;;;;5077717;28;20206;-63
2024/01/22 00:41:36;;;;;;;4.40;4.00;;;0.50;46.10;;;;;;5052376;28;20205;-63
2024/01/22 00:44:02;;;;;;;4.33;3.93;;;0.60;45.60;;;;;;5062653;28;20210;-61
2024/01/22 00:46:29;;;;;;;4.67;4.00;;;0.70;45.70;;;;;;5074695;28;20224;-65
2024/01/22 00:48:55;;;;;;;5.07;4.17;;;0.60;46.00;;;;;;5077514;28;20242;-65
2024/01/22 00:51:22;;;;;;;4.27;3.87;;;0.70;45.80;;;;;;5073009;28;20211;-64
2024/01/22 00:53:48;;;;;;;7.80;4.47;;;0.60;45.90;;;;;;5076451;28;20263;-64
2024/01/22 00:56:14;;;;;;;5.17;4.10;;;0.60;46.30;;;;;;5066551;28;20578;-65
2024/01/22 00:58:41;;;;;;;6.40;4.10;;;0.50;46.40;;;;;;5077552;28;20210;-67
2024/01/22 01:01:08;;;;;;;5.40;4.63;;;0.60;46.10;;;;;;5079274;28;20247;-65
2024/01/22 01:03:34;;;;;;;4.90;4.40;;;0.60;46.10;;;;;;5080075;28;20213;-63
2024/01/22 01:06:01;;;;;;;4.67;4.27;;;0.70;45.70;;;;;;5077701;28;20272;-64
2024/01/22 01:08:28;;;;;;;5.27;4.87;;;0.70;45.60;;;;;;5083480;28;20216;-62
2024/01/22 01:10:54;;;;;;;6.30;4.60;;;0.70;45.60;;;;;;5080862;28;20205;-63
2024/01/22 01:13:21;;;;;;;4.90;4.40;;;0.70;45.50;;;;;;5061759;28;20205;-65
2024/01/22 01:15:47;;;;;;;4.77;4.37;;;0.80;45.50;;;;;;5071515;28;20292;-63
2024/01/22 01:18:14;;;;;;;6.27;4.70;;;0.80;45.20;;;;;;5071545;28;20237;-62
2024/01/22 01:20:40;;;;;;;5.10;4.30;;;0.90;45.00;;;;;;5080011;28;20338;-63
2024/01/22 01:23:07;;;;;;;4.40;4.00;;;0.80;44.90;;;;;;5070770;28;20640;-64
2024/01/22 01:25:33;;;;;;;4.40;3.97;;;0.70;44.50;;;;;;5077809;28;20247;-63
2024/01/22 01:28:00;;;;;;;4.10;3.80;;;0.80;44.20;;;;;;5064736;28;20219;-64
2024/01/22 01:30:26;;;;;;;4.97;3.70;;;0.70;44.90;;;;;;5069631;28;20230;-64
2024/01/22 01:32:53;;;;;;;3.93;3.63;;;0.90;43.50;;;;;;5075381;28;20202;-64
2024/01/22 01:35:19;;;;;;;4.60;4.20;;;0.90;43.20;;;;;;5075444;28;20214;-64
2024/01/22 01:37:46;;;;;;;3.53;3.27;;;0.80;43.00;;;;;;5078843;28;20629;-63
2024/01/22 01:40:12;;;;;;;3.90;3.60;;;0.90;42.50;;;;;;5071039;28;20255;-64
2024/01/22 01:42:39;;;;;;;3.30;3.00;;;0.90;43.00;;;;;;5079575;28;20638;-62
2024/01/22 01:45:05;;;;;;;3.73;3.43;;;0.90;42.30;;;;;;5080614;28;20253;-66
2024/01/22 01:47:32;;;;;;;3.30;3.10;;;0.90;41.80;;;;;;5072966;28;20257;-65
2024/01/22 01:49:58;;;;;;;3.80;3.40;;;0.90;42.70;;;;;;5075430;28;20202;-63
2024/01/22 01:52:25;;;;;;;4.07;3.23;;;0.90;42.00;;;;;;5075696;28;20251;-63
2024/01/22 01:54:51;;;;;;;3.87;3.57;;;0.80;42.20;;;;;;5073498;28;20205;-62
2024/01/22 01:57:20;;;;;;;3.70;3.40;;;0.80;42.30;;;;;;5075717;28;20248;-62
2024/01/22 01:59:46;;;;;;;3.97;3.57;;;0.80;42.40;;;;;;5071583;28;20206;-64
2024/01/22 02:02:13;;;;;;;4.33;4.00;;;0.80;42.40;;;;;;5068431;28;20211;-64
2024/01/22 02:04:39;;;;;;;4.30;3.90;;;0.90;42.00;;;;;;5076747;28;20627;-62
2024/01/22 02:07:06;;;;;;;6.70;4.27;;;0.90;41.80;;;;;;5080707;28;20231;-64
2024/01/22 02:09:32;;;;;;;4.77;4.27;;;0.90;41.80;;;;;;5079263;28;20209;-62
2024/01/22 02:11:59;;;;;;;4.40;4.00;;;0.80;41.80;;;;;;5075981;28;20630;-66
2024/01/22 02:14:25;;;;;;;4.83;4.30;;;0.90;42.00;;;;;;5073064;28;20245;-63
2024/01/22 02:16:52;;;;;;;4.13;3.77;;;0.80;41.80;;;;;;5073158;28;20225;-63
2024/01/22 02:19:18;;;;;;;4.10;3.80;;;0.70;41.70;;;;;;5075492;28;20268;-63
2024/01/22 02:21:45;;;;;;;3.63;3.30;;;0.80;42.00;;;;;;5066681;28;20234;-63
2024/01/22 02:24:11;;;;;;;3.80;3.50;;;0.70;41.60;;;;;;5082149;28;20244;-63
2024/01/22 02:26:38;;;;;;;3.37;3.07;;;0.80;41.50;;;;;;5078377;28;20299;-64
2024/01/22 02:29:04;;;;;;;3.60;3.30;;;0.80;41.10;;;;;;5079876;28;20241;-63
2024/01/22 02:31:30;;;;;;;3.30;3.00;;;0.80;40.90;;;;;;5077079;28;20234;-62
2024/01/22 02:33:57;;;;;;;3.10;2.80;;;0.80;40.70;;;;;;5075885;28;20205;-60
2024/01/22 02:36:23;;;;;;;3.20;3.00;;;0.80;40.30;;;;;;5086722;28;20256;-61
2024/01/22 02:38:50;;;;;;;3.10;2.90;;;0.80;40.10;;;;;;5083616;28;20216;-65
2024/01/22 02:41:16;;;;;;;3.17;2.97;;;0.90;40.60;;;;;;5078336;28;20209;-62
2024/01/22 02:43:43;;;;;;;3.13;2.93;;;0.90;38.70;;;;;;5075207;28;20238;-61
2024/01/22 02:46:10;;;;;;;3.10;2.80;;;1.00;38.80;;;;;;5083847;28;20231;-61
2024/01/22 02:48:36;;;;;;;3.77;2.83;;;1.00;38.00;;;;;;5084120;28;20207;-65
2024/01/22 02:51:03;;;;;;;2.73;2.63;;;1.00;38.20;;;;;;5084490;28;20655;-62
2024/01/22 02:53:29;;;;;;;3.13;2.83;;;1.10;37.60;;;;;;5082772;28;20298;-62
2024/01/22 02:55:56;;;;;;;3.43;3.13;;;1.10;37.70;;;;;;5078909;28;20226;-60
2024/01/22 02:58:22;;;;;;;4.50;2.70;;;1.00;37.40;;;;;;5081936;28;20251;-60
2024/01/22 03:00:49;;;;;;;2.50;2.40;;;1.10;37.10;;;;;;5079989;28;20335;-66
2024/01/22 03:03:15;;;;;;;2.70;2.50;;;1.20;36.70;;;;;;5074668;28;20210;-64
2024/01/22 03:05:42;;;;;;;2.47;2.37;;;1.20;37.00;;;;;;5082844;28;20265;-62
2024/01/22 03:08:09;;;;;;;2.80;2.60;;;1.20;36.80;;;;;;5085966;28;20230;-63
2024/01/22 03:10:35;;;;;;;3.60;2.80;;;1.20;36.70;;;;;;5088114;28;20380;-64
2024/01/22 03:13:02;;;;;;;2.87;2.57;;;1.20;36.30;;;;;;5085360;28;20560;-65
2024/01/22 03:15:28;;;;;;;3.10;2.90;;;1.20;36.30;;;;;;5066216;28;20225;-62
2024/01/22 03:17:55;;;;;;;2.70;2.60;;;1.20;36.80;;;;;;5076664;28;20213;-62
2024/01/22 03:20:21;;;;;;;2.70;2.60;;;1.20;36.90;;;;;;5082644;28;20245;-65
2024/01/22 03:22:48;;;;;;;3.07;2.50;;;1.20;36.60;;;;;;5082547;28;20706;-65
2024/01/22 03:25:15;;;;;;;2.73;2.50;;;1.20;37.30;;;;;;5083723;28;20227;-62
2024/01/22 03:27:41;;;;;;;2.30;2.20;;;1.20;36.40;;;;;;5082594;28;20236;-61
2024/01/22 03:30:08;;;;;;;2.70;2.50;;;1.10;36.40;;;;;;5075763;28;20669;-60
2024/01/22 03:32:34;;;;;;;2.40;2.30;;;1.10;36.80;;;;;;5076426;28;20256;-63
2024/01/22 03:35:01;;;;;;;2.70;2.50;;;1.10;36.90;;;;;;5072911;28;20206;-64
2024/01/22 03:37:27;;;;;;;2.60;2.40;;;1.00;37.00;;;;;;5073622;28;20256;-64
2024/01/22 03:39:54;;;;;;;2.47;2.37;;;1.00;37.30;;;;;;5082011;28;20214;-61
2024/01/22 03:42:20;;;;;;;5.33;2.87;;;0.90;37.60;;;;;;5072018;28;20241;-61
2024/01/22 03:44:47;;;;;;;5.13;3.10;;;0.80;37.90;;;;;;5072340;28;20275;-61
2024/01/22 03:47:13;;;;;;;4.70;2.97;;;0.90;38.00;;;;;;5077734;28;20226;-65
2024/01/22 03:49:40;;;;;;;3.37;2.97;;;0.90;38.00;;;;;;5075822;28;20238;-63
2024/01/22 03:52:06;;;;;;;4.73;3.03;;;0.90;38.00;;;;;;5083052;28;20218;-63
2024/01/22 03:54:33;;;;;;;3.27;2.97;;;0.90;38.00;;;;;;5079053;28;20219;-61
2024/01/22 03:57:04;;;;;;;2.80;2.60;;;0.90;38.10;;;;;;5086367;28;20712;-64
2024/01/22 03:59:30;;;;;;;3.40;2.70;;;0.90;38.00;;;;;;5064152;28;20206;-61
2024/01/22 04:01:57;;;;;;;2.93;2.73;;;1.00;38.00;;;;;;5086353;28;20241;-62
2024/01/22 04:04:23;;;;;;;3.57;2.50;;;0.90;38.00;;;;;;5081287;28;20264;-62
2024/01/22 04:06:50;;;;;;;4.17;2.70;;;0.90;38.00;;;;;;5072160;28;20282;-66
2024/01/22 04:09:16;;;;;;;2.80;2.60;;;0.90;37.90;;;;;;5069525;28;20254;-62
2024/01/22 04:11:43;;;;;;;2.90;2.70;;;1.10;37.40;;;;;;5061872;28;20628;-60
2024/01/22 04:14:09;;;;;;;2.70;2.50;;;1.10;37.60;;;;;;5083793;28;20255;-63
2024/01/22 04:16:36;;;;;;;3.27;3.07;;;0.90;37.90;;;;;;5069284;28;20397;-64
2024/01/22 04:19:02;;;;;;;4.83;2.97;;;0.90;38.00;;;;;;5077088;28;20261;-64
2024/01/22 04:21:29;;;;;;;3.20;2.83;;;1.00;37.50;;;;;;5073017;28;20253;-62
2024/01/22 04:23:55;;;;;;;2.97;2.70;;;1.00;37.80;;;;;;5077947;28;20238;-63
2024/01/22 04:26:22;;;;;;;4.57;2.90;;;1.00;37.10;;;;;;5070077;28;20273;-63
2024/01/22 04:28:48;;;;;;;2.87;2.67;;;1.10;37.00;;;;;;5081066;28;20580;-61
2024/01/22 04:31:15;;;;;;;3.00;2.80;;;1.10;36.70;;;;;;5088384;28;20233;-63
2024/01/22 04:33:41;;;;;;;3.73;2.50;;;1.10;36.70;;;;;;5081803;28;20201;-65
2024/01/22 04:36:08;;;;;;;2.73;2.53;;;1.20;36.30;;;;;;5076899;28;20659;-64
2024/01/22 04:38:34;;;;;;;2.63;2.43;;;1.20;36.10;;;;;;5081713;28;20207;-62
2024/01/22 04:41:01;;;;;;;2.93;2.73;;;1.20;36.30;;;;;;5077317;28;20230;-61
2024/01/22 04:43:27;;;;;;;2.80;2.70;;;1.20;36.20;;;;;;5084594;28;20285;-61
2024/01/22 04:45:54;;;;;;;2.43;2.33;;;1.20;35.50;;;;;;5072377;28;20257;-65
2024/01/22 04:48:20;;;;;;;5.43;2.47;;;1.30;35.50;;;;;;5081341;28;20269;-62
2024/01/22 04:50:47;;;;;;;2.47;2.27;;;1.30;35.50;;;;;;5080816;28;20304;-64
2024/01/22 04:53:13;;;;;;;2.60;2.40;;;1.30;35.90;;;;;;5075953;28;20646;-60
2024/01/22 04:55:40;;;;;;;3.47;2.57;;;1.30;35.40;;;;;;5082542;28;20229;-62
2024/01/22 04:58:06;;;;;;;2.43;2.30;;;1.40;35.20;;;;;;5068888;28;20210;-64
2024/01/22 05:00:33;;;;;;;2.20;2.10;;;1.40;34.80;;;;;;5075598;28;20213;-62
2024/01/22 05:03:04;;;;;;;3.37;2.87;;;1.40;34.60;;;;;;5079838;28;20206;-64
2024/01/22 05:05:30;;;;;;;5.80;2.57;;;1.50;34.40;;;;;;5081056;28;20222;-62
2024/01/22 05:07:57;;;;;;;6.27;2.50;;;1.50;33.90;;;;;;5079492;28;20329;-65
2024/01/22 05:10:23;;;;;;;2.47;2.30;;;1.60;33.90;;;;;;5081681;28;20620;-62
2024/01/22 05:12:50;;;;;;;2.40;2.20;;;1.70;33.40;;;;;;5082269;28;20261;-62
2024/01/22 05:15:16;;;;;;;2.70;2.47;;;1.70;33.20;;;;;;5061808;28;20282;-62
2024/01/22 05:17:43;;;;;;;6.53;3.60;;;1.70;32.70;;;;;;5081947;28;20206;-59
2024/01/22 05:20:09;;;;;;;3.40;2.37;;;1.80;32.30;;;;;;5079403;28;20203;-65
2024/01/22 05:22:36;;;;;;;2.70;2.40;;;1.90;31.90;;;;;;5083909;28;20229;-62
2024/01/22 05:25:02;;;;;;;2.53;2.33;;;2.00;31.20;;;;;;5082546;28;20215;-62
2024/01/22 05:27:29;;;;;;;2.33;2.23;;;2.10;30.70;;;;;;5074311;28;20212;-63
2024/01/22 05:29:55;;;;;;;2.60;2.50;;;2.20;30.60;;;;;;5083591;28;20234;-64
2024/01/22 05:32:22;;;;;;;4.30;2.70;;;2.20;31.00;;;;;;5073142;28;20210;-64
2024/01/22 05:34:48;;;;;;;3.80;2.30;;;2.20;30.60;;;;;;5087372;28;20277;-64
2024/01/22 05:37:15;;;;;;;3.03;2.30;;;2.20;31.00;;;;;;5075751;28;20208;-62
2024/01/22 05:39:41;;;;;;;4.73;2.50;;;2.20;30.30;;;;;;5083451;28;20231;-62
2024/01/22 05:42:08;;;;;;;3.73;2.70;;;2.30;30.00;;;;;;5080279;28;20256;-63
2024/01/22 05:44:34;;;;;;;2.37;2.20;;;2.30;30.60;;;;;;5080517;28;20272;-63
2024/01/22 05:47:01;;;;;;;4.30;2.43;;;2.30;30.00;;;;;;5081300;28;20312;-63
2024/01/22 05:49:27;;;;;;;4.67;2.40;;;2.30;30.00;;;;;;5083655;28;20589;-63
2024/01/22 05:51:54;;;;;;;2.87;2.20;;;2.30;30.00;;;;;;5079575;28;20210;-64
2024/01/22 05:54:20;;;;;;;4.43;2.77;;;2.40;30.00;;;;;;5067743;28;20231;-62
2024/01/22 05:56:47;;;;;;;3.50;2.23;;;2.40;30.00;;;;;;5079542;28;20281;-64
2024/01/22 05:59:13;;;;;;;5.37;2.20;;;2.40;30.00;;;;;;5087176;28;20208;-64
2024/01/22 06:01:40;;;;;;;5.33;2.40;;;2.30;30.10;;;;;;5079713;28;20268;-64
2024/01/22 06:04:06;;;;;;;9.40;2.80;;;2.30;30.40;;;;;;5081808;28;20237;-64
2024/01/22 06:06:33;;;;;;;5.87;2.13;;;2.20;30.90;;;;;;5083319;28;20238;-63
2024/01/22 06:08:59;;;;;;;6.10;2.60;;;2.10;31.40;;;;;;5081706;28;20267;-64
2024/01/22 06:11:27;;;;;;;5.27;2.77;;;2.00;32.50;;;;;;5073597;28;20218;-64
2024/01/22 06:13:54;;;;;;;5.70;2.80;;;1.90;32.50;;;;;;5082690;28;20259;-64
2024/01/22 06:16:21;;;;;;;8.40;2.73;;;1.80;32.40;;;;;;5079561;28;20246;-64
2024/01/22 06:18:48;;;;;;;6.47;2.83;;;1.80;33.30;;;;;;5079629;28;20262;-62
2024/01/22 06:21:14;;;;;;;10.27;2.67;;;1.70;33.70;;;;;;5083373;28;20674;-64
2024/01/22 06:23:42;;;;;;;11.37;3.23;;;1.70;33.40;;;;;;5077695;28;20222;-64
2024/01/22 06:26:08;;;;;;;4.87;2.70;;;1.80;33.10;;;;;;5069724;28;20311;-64
2024/01/22 06:28:35;;;;;;;6.00;3.30;;;1.90;32.80;;;;;;5082733;28;20318;-64
2024/01/22 06:31:02;;;;;;;4.50;2.43;;;1.90;32.80;;;;;;5080958;28;20208;-63
2024/01/22 06:33:29;;;;;;;6.43;2.83;;;1.90;32.20;;;;;;5074926;28;20211;-61
2024/01/22 06:35:55;;;;;;;4.97;2.63;;;2.10;32.20;;;;;;5080892;28;20225;-60
2024/01/22 06:38:22;;;;;;;7.63;2.83;;;2.10;31.90;;;;;;5074060;28;20298;-59
2024/01/22 06:40:49;;;;;;;9.93;2.70;;;2.00;31.80;;;;;;5075909;28;20203;-64
2024/01/22 06:43:15;;;;;;;5.50;2.70;;;2.10;32.00;;;;;;5070880;28;20215;-65
2024/01/22 06:45:41;;;;;;;5.03;2.60;;;2.10;31.90;;;;;;5082741;28;20247;-62
2024/01/22 06:48:08;;;;;;;8.03;3.03;;;2.10;31.90;;;;;;5080187;28;20255;-63
2024/01/22 06:50:34;;;;;;;8.50;2.83;;;2.10;32.20;;;;;;5079581;28;20743;-64
2024/01/22 06:53:01;;;;;;;7.10;2.80;;;2.20;32.20;;;;;;5079037;28;20216;-64
2024/01/22 06:55:28;;;;;;;5.13;3.23;;;2.20;32.40;;;;;;5082903;28;20257;-64
2024/01/22 06:57:54;;;;;;;4.10;2.60;;;2.20;32.10;;;;;;5066070;28;20639;-63
2024/01/22 07:00:21;;;;;;;3.33;3.03;;;2.10;32.50;;;;;;5065029;28;20239;-65
2024/01/22 07:02:49;;;;;;;10.03;4.60;;;2.20;32.40;;;;;;5060958;28;20601;-64
2024/01/22 07:05:15;;;;;;;8.47;2.83;;;2.20;32.20;;;;;;5078791;28;20314;-61
2024/01/22 07:07:42;;;;;;;6.23;3.20;;;2.20;32.40;;;;;;5078761;28;20255;-65
2024/01/22 07:10:08;;;;;;;4.77;2.87;;;2.20;32.20;;;;;;5083304;28;20677;-64
2024/01/22 07:12:35;;;;;;;6.77;2.57;;;2.30;32.00;;;;;;5080198;28;20298;-62
2024/01/22 07:15:01;;;;;;;9.40;3.03;;;2.20;32.30;;;;;;5083872;28;20312;-62
2024/01/22 07:17:28;;;;;;;10.90;2.70;;;2.30;32.60;;;;;;5076956;28;20284;-64
2024/01/22 07:19:55;;;;;;;4.70;2.93;;;2.20;32.30;;;;;;5072836;28;20206;-64
2024/01/22 07:22:21;;;;;;;4.03;2.43;;;2.30;32.40;;;;;;5060522;28;20230;-63
2024/01/22 07:24:48;;;;;;;3.13;2.30;;;2.30;32.30;;;;;;5070081;28;20637;-62
2024/01/22 07:27:15;;;;;;;6.47;3.07;;;2.30;32.30;;;;;;5078486;28;20712;-62
2024/01/22 07:29:41;;;;;;;8.87;2.90;;;2.40;32.00;;;;;;5063962;28;20249;-65
2024/01/22 07:32:09;;;;;;;9.47;3.47;;;2.30;32.00;;;;;;5083606;28;20231;-64
2024/01/22 07:34:35;;;;;;;3.40;2.50;;;2.40;32.30;;;;;;5074818;28;20720;-63
2024/01/22 07:37:01;;;;;;;4.30;2.90;;;2.40;32.30;;;;;;5069737;28;20246;-64
2024/01/22 07:39:28;;;;;;;7.27;2.90;;;2.50;32.00;;;;;;5069419;28;20258;-64
2024/01/22 07:41:54;;;;;;;3.73;2.50;;;2.50;31.80;;;;;;5079108;28;20226;-61
2024/01/22 07:44:21;;;;;;;3.23;2.50;;;2.60;31.90;;;;;;5074819;28;20674;-64
2024/01/22 07:46:49;;;;;;;2.50;2.30;;;2.60;31.40;;;;;;5081282;28;20289;-64
2024/01/22 07:49:16;;;;;;;12.30;2.80;;;2.60;31.00;;;;;;5081262;28;20236;-65
2024/01/22 07:51:43;;;;;;;7.57;3.07;;;2.70;31.30;;;;;;5071175;28;20303;-64
2024/01/22 07:54:10;;;;;;;9.33;3.33;;;2.60;31.40;;;;;;5064329;28;20623;-67
2024/01/22 07:56:36;;;;;;;12.63;3.30;;;2.70;31.50;;;;;;5050142;28;20323;-66
2024/01/22 07:59:04;;;;;;;8.80;2.90;;;2.70;31.70;;;;;;5067065;28;20204;-62
2024/01/22 08:01:30;;;;;;;9.20;3.07;;;2.80;31.10;;;;;;5073377;28;20212;-64
2024/01/22 08:03:57;;;;;;;8.73;3.03;;;2.80;31.20;;;;;;5070797;28;20664;-61
2024/01/22 08:06:23;;;;;;;5.07;2.90;;;2.90;31.70;;;;;;5048081;28;20609;-63
2024/01/22 08:08:50;;;;;;;10.00;2.90;;;2.90;31.70;;;;;;5056967;28;20259;-62
2024/01/22 08:11:18;;;;;;;12.60;3.50;;;3.00;31.80;;;;;;5064915;28;20545;-66
2024/01/22 08:13:44;;;;;;;6.67;3.17;;;3.00;31.70;;;;;;5068082;28;20501;-61
2024/01/22 08:16:12;;;;;;;6.67;2.80;;;3.10;32.00;;;;;;5062109;28;20680;-65
2024/01/22 08:18:38;;;;;;;25.27;5.07;;;3.10;32.10;;;;;;5063201;28;20557;-62
2024/01/22 08:21:05;;;;;;;18.63;4.40;;;3.20;32.10;;;;;;5061460;28;20305;-63
2024/01/22 08:23:31;;;;;;;13.87;3.90;;;3.30;32.70;;;;;;5074973;28;20216;-65
2024/01/22 08:25:58;;;;;;;31.23;5.73;;;3.30;33.50;;;;;;5079462;28;20658;-68
2024/01/22 08:28:25;;;;;;;13.83;3.97;;;3.40;32.80;;;;;;5072754;28;20227;-61
2024/01/22 08:30:51;;;;;;;12.57;3.83;;;3.30;33.40;;;;;;5082685;28;20274;-63
2024/01/22 08:33:18;;;;;;;15.33;3.60;;;3.30;33.70;;;;;;5075077;28;20258;-62
2024/01/22 08:35:44;;;;;;;9.03;3.10;;;3.30;33.40;;;;;;5068884;28;20287;-60
2024/01/22 08:38:11;;;;;;;7.70;3.00;;;3.30;34.00;;;;;;5071065;28;20292;-63
2024/01/22 08:40:37;;;;;;;3.23;2.73;;;3.30;33.70;;;;;;5075871;28;20208;-62
2024/01/22 08:43:04;;;;;;;6.40;3.03;;;3.30;33.70;;;;;;5079959;28;20243;-61
2024/01/22 08:45:31;;;;;;;7.63;2.87;;;3.30;33.10;;;;;;5077665;28;20221;-61
2024/01/22 08:47:58;;;;;;;5.50;2.90;;;3.40;32.80;;;;;;5069936;28;20691;-60
2024/01/22 08:50:24;;;;;;;10.97;3.03;;;3.50;32.30;;;;;;5068051;28;20326;-63
2024/01/22 08:52:52;;;;;;;12.90;4.13;;;3.70;32.10;;;;;;5039483;28;20232;-61
2024/01/22 08:55:20;;;;;;;4.37;2.90;;;3.80;31.70;;;;;;5059686;28;20217;-65
2024/01/22 08:57:46;;;;;;;6.63;2.80;;;3.90;31.20;;;;;;5060606;28;20564;-66
2024/01/22 09:00:14;;;;;;;9.13;3.03;;;4.00;31.30;;;;;;5077513;28;20201;-62
2024/01/22 09:02:40;;;;;;;8.07;3.00;;;4.10;30.50;;;;;;5061160;28;20205;-62
2024/01/22 09:05:07;;;;;;;8.07;2.40;;;4.20;29.70;;;;;;5062789;28;20224;-63
2024/01/22 09:07:33;;;;;;;5.40;2.70;;;4.40;29.20;;;;;;5072444;28;20260;-63
2024/01/22 09:10:00;;;;;;;5.73;2.70;;;4.40;29.00;;;;;;5058962;28;20644;-62
2024/01/22 09:12:26;;;;;;;4.73;2.40;;;4.60;28.90;;;;;;5067571;28;21554;-60
2024/01/22 09:14:53;;;;;;;5.47;2.70;;;4.60;29.20;;;;;;5073620;28;20231;-63
2024/01/22 09:17:19;;;;;;;7.13;2.80;;;4.60;29.20;;;;;;5064930;28;20577;-67
2024/01/22 09:19:45;;;;;;;8.30;2.73;;;4.70;29.30;;;;;;5073413;28;20227;-63
2024/01/22 09:22:12;;;;;;;6.63;2.60;;;4.80;29.20;;;;;;5082181;28;20210;-63
2024/01/22 09:24:38;;;;;;;10.37;3.27;;;4.90;28.90;;;;;;5081508;28;20212;-63
2024/01/22 09:27:05;;;;;;;5.17;2.87;;;4.90;28.80;;;;;;5077356;28;20224;-59
2024/01/22 09:29:31;;;;;;;11.27;3.00;;;4.80;28.90;;;;;;5071126;28;20311;-60
2024/01/22 09:31:58;;;;;;;7.70;2.67;;;4.80;29.20;;;;;;5079951;28;20213;-61
2024/01/22 09:34:24;;;;;;;9.33;3.47;;;4.90;29.20;;;;;;5069923;28;20209;-64
2024/01/22 09:36:50;;;;;;;8.03;3.27;;;5.00;29.30;;;;;;5071033;28;20247;-62
2024/01/22 09:39:17;;;;;;;5.73;3.07;;;5.00;29.30;;;;;;5068044;28;20288;-57
2024/01/22 09:41:43;;;;;;;7.67;2.90;;;5.10;29.30;;;;;;5074540;28;20216;-63
2024/01/22 09:44:10;;;;;;;7.00;2.77;;;5.10;29.50;;;;;;5071878;28;20514;-58
2024/01/22 09:46:36;;;;;;;9.33;2.90;;;5.10;29.40;;;;;;5068796;28;20217;-59
2024/01/22 09:49:03;;;;;;;7.97;2.97;;;5.20;29.50;;;;;;5066505;28;20325;-60
2024/01/22 09:51:29;;;;;;;8.10;2.67;;;5.20;29.50;;;;;;5055926;28;20686;-60
2024/01/22 09:53:56;;;;;;;5.90;2.67;;;5.20;29.80;;;;;;5074092;28;20266;-61
2024/01/22 09:56:23;;;;;;;7.40;2.23;;;5.40;30.20;;;;;;5066804;28;20224;-58
2024/01/22 09:58:49;;;;;;;3.83;2.23;;;5.40;30.00;;;;;;5069444;28;20201;-63
2024/01/22 10:01:17;;;;;;;6.57;2.30;;;5.50;30.20;;;;;;5067792;28;20226;-59
2024/01/22 10:03:43;;;;;;;2.70;2.27;;;5.50;30.20;;;;;;5073965;28;20209;-59
2024/01/22 10:06:10;;;;;;;2.60;1.90;;;5.60;30.50;;;;;;5059426;28;20258;-62
2024/01/22 10:08:36;;;;;;;8.23;2.47;;;5.60;30.80;;;;;;5062866;28;20221;-60
2024/01/22 10:11:03;;;;;;;6.93;2.30;;;5.70;30.90;;;;;;5066688;28;20205;-63
2024/01/22 10:13:30;;;;;;;6.27;2.50;;;5.70;31.20;;;;;;5057622;28;20201;-60
2024/01/22 10:15:55;;;;;;;9.00;3.07;;;5.70;31.40;;;;;;5074814;28;20273;-63
2024/01/22 10:18:22;;;;;;;9.50;3.07;;;5.80;31.10;;;;;;5059982;28;20209;-58
2024/01/22 10:20:50;;;;;;;7.23;3.50;;;5.90;31.30;;;;;;5076012;28;20246;-63
2024/01/22 10:23:16;;;;;;;10.03;3.57;;;5.90;31.60;;;;;;5075316;28;20210;-58
2024/01/22 10:25:43;;;;;;;10.63;3.43;;;5.80;32.10;;;;;;5067286;28;20274;-62
2024/01/22 10:28:09;;;;;;;8.40;3.60;;;5.90;32.40;;;;;;5078396;28;20687;-61
2024/01/22 10:30:36;;;;;;;8.63;2.90;;;5.90;32.70;;;;;;5077218;28;20273;-62
2024/01/22 10:33:03;;;;;;;9.33;3.37;;;6.00;32.90;;;;;;5068473;28;20647;-61
2024/01/22 10:35:32;;;;;;;8.13;2.80;;;6.00;32.90;;;;;;5072553;28;20274;-63
2024/01/22 10:37:58;;;;;;;6.33;2.83;;;5.90;33.30;;;;;;5054771;28;20253;-61
2024/01/22 10:40:25;;;;;;;10.30;3.07;;;5.80;33.70;;;;;;5072529;28;20205;-58
2024/01/22 10:42:51;;;;;;;8.33;2.90;;;5.70;34.40;;;;;;5078312;28;20275;-59
2024/01/22 10:45:18;;;;;;;12.17;3.03;;;5.70;34.70;;;;;;5079094;28;20594;-60
2024/01/22 10:47:44;;;;;;;4.30;2.27;;;5.90;34.60;;;;;;5073684;28;20256;-63
2024/01/22 10:50:11;;;;;;;15.17;4.03;;;6.00;34.60;;;;;;5076736;28;20228;-56
2024/01/22 10:52:37;;;;;;;7.60;2.80;;;6.20;34.30;;;;;;5073249;28;20240;-59
2024/01/22 10:55:04;;;;;;;7.57;3.40;;;6.20;34.50;;;;;;5071558;28;20234;-64
2024/01/22 10:57:31;;;;;;;6.80;2.80;;;6.00;35.20;;;;;;5079073;28;20292;-57
2024/01/22 10:59:57;;;;;;;7.83;3.10;;;6.00;35.30;;;;;;5071789;28;20734;-60
2024/01/22 11:02:24;;;;;;;9.03;3.20;;;6.30;35.00;;;;;;5078894;28;20353;-60
2024/01/22 11:04:50;;;;;;;9.93;2.83;;;6.10;35.50;;;;;;5075892;28;20203;-63
2024/01/22 11:07:17;;;;;;;9.13;3.17;;;6.10;35.60;;;;;;5071415;28;20240;-58
2024/01/22 11:09:44;;;;;;;3.23;2.20;;;5.90;36.40;;;;;;5071273;28;20279;-61
2024/01/22 11:12:10;;;;;;;7.57;3.00;;;6.00;37.10;;;;;;5054554;28;20203;-68
2024/01/22 11:14:36;;;;;;;6.17;2.33;;;6.20;37.00;;;;;;5083930;28;20236;-60
2024/01/22 11:17:04;;;;;;;2.30;1.87;;;6.20;37.20;;;;;;5077935;28;20256;-62
2024/01/22 11:19:31;;;;;;;9.83;2.20;;;6.70;36.50;;;;;;5081646;28;20334;-65
2024/01/22 11:21:58;;;;;;;5.13;1.90;;;6.80;36.70;;;;;;5078868;28;20206;-63
2024/01/22 11:24:24;;;;;;;2.40;1.60;;;6.80;36.30;;;;;;5075807;28;20694;-61
2024/01/22 11:26:51;;;;;;;2.30;1.50;;;6.60;36.80;;;;;;5084204;28;20694;-64
2024/01/22 11:29:18;;;;;;;6.03;1.80;;;6.80;36.50;;;;;;5065678;28;20223;-63
2024/01/22 11:31:44;;;;;;;4.50;2.30;;;6.90;36.60;;;;;;5073384;28;20241;-62
2024/01/22 11:34:11;;;;;;;5.40;2.43;;;7.70;35.00;;;;;;5077834;28;20220;-60
2024/01/22 11:36:37;;;;;;;2.60;2.40;;;7.80;34.40;;;;;;5073125;28;20271;-62
2024/01/22 11:39:04;;;;;;;2.43;1.80;;;7.40;35.10;;;;;;5071257;28;20237;-64
2024/01/22 11:41:32;;;;;;;2.00;1.90;;;7.70;34.90;;;;;;5075842;28;20211;-62
2024/01/22 11:43:58;;;;;;;3.83;2.00;;;7.80;34.40;;;;;;5070163;28;20200;-63
2024/01/22 11:46:25;;;;;;;3.27;1.70;;;7.80;34.40;;;;;;5074084;28;20222;-63
2024/01/22 11:48:51;;;;;;;2.63;1.70;;;7.80;34.30;;;;;;5072942;28;20286;-63
2024/01/22 11:51:18;;;;;;;6.33;2.13;;;7.60;34.20;;;;;;5072581;28;20203;-59
2024/01/22 11:53:44;;;;;;;3.93;2.30;;;7.50;34.50;;;;;;5073436;28;20438;-63
2024/01/22 11:56:11;;;;;;;2.73;2.03;;;7.80;34.20;;;;;;5074815;28;20609;-64
2024/01/22 11:58:37;;;;;;;5.40;2.73;;;7.60;34.20;;;;;;5077944;28;20204;-62
2024/01/22 12:01:04;;;;;;;7.83;3.00;;;7.90;33.60;;;;;;5081961;28;20244;-63
2024/01/22 12:03:30;;;;;;;4.30;2.80;;;7.80;33.60;;;;;;5076351;28;20257;-60
2024/01/22 12:05:57;;;;;;;6.27;2.57;;;7.90;33.70;;;;;;5059948;28;20258;-63
2024/01/22 12:08:23;;;;;;;4.07;2.43;;;8.20;33.00;;;;;;5070721;28;20265;-64
2024/01/22 12:10:52;;;;;;;7.00;2.53;;;7.90;33.60;;;;;;5067324;28;20228;-65
2024/01/22 12:13:21;;;;;;;6.07;2.30;;;7.80;33.80;;;;;;5058566;28;20216;-60
2024/01/22 12:15:48;;;;;;;2.33;2.10;;;7.70;34.30;;;;;;5076484;28;20227;-62
2024/01/22 12:18:14;;;;;;;4.03;2.57;;;7.70;34.30;;;;;;5069151;28;20235;-63
2024/01/22 12:20:41;;;;;;;4.30;1.90;;;7.90;33.90;;;;;;5046791;28;20946;-63
2024/01/22 12:23:09;;;;;;;4.10;2.63;;;8.00;33.50;;;;;;5070249;28;20239;-63
2024/01/22 12:25:35;;;;;;;5.83;2.47;;;7.90;34.20;;;;;;5069374;28;20280;-60
2024/01/22 12:28:02;;;;;;;5.37;2.93;;;8.00;33.50;;;;;;5082257;28;20614;-61
2024/01/22 12:30:28;;;;;;;9.00;3.13;;;7.70;33.80;;;;;;5078003;28;20247;-64
2024/01/22 12:32:55;;;;;;;7.10;3.03;;;7.90;33.40;;;;;;5077144;28;20237;-61
2024/01/22 12:35:21;;;;;;;5.97;3.60;;;7.90;33.40;;;;;;5085332;28;20737;-59
2024/01/22 12:37:48;;;;;;;9.67;3.80;;;7.70;33.90;;;;;;5076531;28;20329;-61
2024/01/22 12:40:17;;;;;;;6.50;3.00;;;7.70;34.30;;;;;;5084930;28;20468;-60
2024/01/22 12:42:44;;;;;;;9.10;3.80;;;7.80;33.90;;;;;;5072530;28;20204;-60
2024/01/22 12:45:11;;;;;;;6.60;3.43;;;7.80;34.00;;;;;;5069718;28;20232;-63
2024/01/22 12:47:37;;;;;;;8.20;3.23;;;7.50;34.40;;;;;;5084928;28;20681;-62
2024/01/22 12:50:04;;;;;;;8.97;3.50;;;7.60;34.50;;;;;;5083694;28;20252;-62